Sunday, July 22, 2018, 12:31 AM EDT
Back to Local

KORE, Orange, Orange Municipal Airport

Location: Orange, MA, United States Lat: 42.572
Local Time: 12:31 AM EDT ( 4:31 GMT) Lon: -72.278
Time Zone: US/Eastern Elev: 554 ft

Show me the last for .
Show Decoded

2018-07-21 23:52 METAR KORE 220352Z AUTO 05003KT 10SM FEW017 18/14 A3010 RMK AO2 SLP192 T01830144
                 =
2018-07-21 22:52 METAR KORE 220252Z AUTO 05004KT 10SM FEW019 FEW055 19/14 A3013 RMK AO2 SLP200
                 T01890139 50003 =
2018-07-21 21:52 METAR KORE 220152Z AUTO 10004KT 10SM BKN060 19/14 A3013 RMK AO2 SLP203 T01940144
                 =
2018-07-21 20:52 METAR KORE 220052Z AUTO 10004KT 10SM CLR 21/14 A3013 RMK AO2 SLP200 T02060144 =
2018-07-21 19:52 METAR KORE 212352Z AUTO 10008KT 10SM CLR 22/13 A3012 RMK AO2 SLP198 T02220133
                 10283 20222 53005 =
2018-07-21 18:52 METAR KORE 212252Z AUTO 11009G18KT 10SM CLR 24/13 A3011 RMK AO2 SLP195 T02390133
                 =
2018-07-21 17:52 METAR KORE 212152Z AUTO 09010KT 10SM SCT043 26/14 A3010 RMK AO2 SLP190 T02560139
                 =
2018-07-21 16:52 METAR KORE 212052Z AUTO 14009KT 10SM CLR 26/13 A3010 RMK AO2 SLP192 T02610133
                 55010 =
2018-07-21 15:52 METAR KORE 211952Z AUTO 12008G14KT 10SM CLR 27/12 A3010 RMK AO2 SLP191 T02670117
                 =
2018-07-21 14:52 METAR KORE 211852Z AUTO 15008KT 110V180 10SM CLR 27/11 A3012 RMK AO2 SLP196
                 T02720111 =
2018-07-21 13:52 METAR KORE 211752Z AUTO 08007KT 10SM CLR 27/11 A3013 RMK AO2 SLP201 T02670111
                 10272 20172 58012 =
2018-07-21 12:52 METAR KORE 211652Z AUTO 12006G15KT 10SM CLR 26/10 A3016 RMK AO2 SLP209 T02610100
                 =
2018-07-21 11:52 METAR KORE 211552Z AUTO 13011KT 110V170 10SM CLR 25/12 A3016 RMK AO2 SLP211
                 T02500117 =
2018-07-21 10:52 METAR KORE 211452Z AUTO VRB06KT 10SM FEW025 BKN035 24/14 A3017 RMK AO2 SLP213
                 T02390139 58004 =
2018-07-21 10:03 METAR KORE 211403Z AUTO VRB04KT 10SM SCT021 SCT030 23/16 A3017 RMK AO2 T02280156
                 =
2018-07-21 09:52 METAR KORE 211352Z AUTO VRB03KT 10SM BKN023 BKN032 22/16 A3017 RMK AO2 SLP214
                 T02220156 =
2018-07-21 09:20 METAR KORE 211320Z AUTO 00000KT 10SM FEW024 SCT033 21/15 A3018 RMK AO2 T02060150
                 =
2018-07-21 08:52 METAR KORE 211252Z AUTO VRB03KT 10SM SCT019 BKN024 19/16 A3018 RMK AO2 SLP218
                 T01940156 =
2018-07-21 08:20 METAR KORE 211220Z AUTO 00000KT 10SM OVC016 18/15 A3018 RMK AO2 T01830150 =
2018-07-21 07:52 METAR KORE 211152Z AUTO 00000KT 10SM OVC013 17/15 A3018 RMK AO2 SLP217 T01720150
                 10172 20139 51004 =
2018-07-21 06:52 METAR KORE 211052Z AUTO 00000KT 10SM OVC011 16/14 A3017 RMK AO2 SLP216 T01610144
                 =
2018-07-21 05:52 METAR KORE 210952Z AUTO 00000KT 10SM OVC008 16/14 A3018 RMK AO2 SLP216 T01560139
                 =
2018-07-21 05:34 METAR KORE 210934Z AUTO 00000KT 10SM BKN009 14/13 A3017 RMK AO2 T01440133 =
2018-07-21 05:25 METAR KORE 210925Z AUTO 00000KT 10SM SCT009 14/13 A3017 RMK AO2 T01390128 =
2018-07-21 04:52 METAR KORE 210852Z AUTO 00000KT 10SM FEW039 14/13 A3017 RMK AO2 SLP213 T01440133
                 53001 =
2018-07-21 03:52 METAR KORE 210752Z AUTO 00000KT 10SM CLR 14/13 A3016 RMK AO2 SLP211 T01440133 =
2018-07-21 02:52 METAR KORE 210652Z AUTO 00000KT 10SM CLR 16/14 A3016 RMK AO2 SLP211 T01560139 =
2018-07-21 01:52 METAR KORE 210552Z AUTO 00000KT 10SM CLR 17/14 A3016 RMK AO2 SLP211 T01670144
                 10261 20161 58001 =
2018-07-21 00:52 METAR KORE 210452Z AUTO 00000KT 10SM CLR 17/14 A3016 RMK AO2 SLP212 T01720144
                 403000117 =

Support USWX by starting your Amazon purchase here.